Time;durP1;ratioP1;P1;durP2;ratioP2;P2;SDS_P1;SDS_P2;PMS_P1;PMS_P2;Temp;Humidity;BMP_temperature;BMP_pressure;BME280_temperature;BME280_humidity;BME280_pressure;Samples;Min_cycle;Max_cycle;Signal;HPM_P1;HPM_P2
2022/08/02 00:00:00;;;;;;;3.33;3.03;;;21.00;99.90;;;;;;5099490;28;20468;-55
2022/08/02 00:02:27;;;;;;;3.23;2.57;;;21.00;99.90;;;;;;5099962;28;20524;-52
2022/08/02 00:04:55;;;;;;;3.90;2.80;;;21.00;99.90;;;;;;5099461;28;20898;-51
2022/08/02 00:07:22;;;;;;;5.27;2.40;;;21.10;99.90;;;;;;5099352;28;20976;-52
2022/08/02 00:09:49;;;;;;;8.80;2.77;;;21.10;99.90;;;;;;5099253;28;20449;-54
2022/08/02 00:12:16;;;;;;;8.03;3.13;;;21.20;99.90;;;;;;5100022;28;20461;-56
2022/08/02 00:15:06;;;;;;;2.37;2.03;;;21.10;99.90;;;;;;5099224;28;20517;-55
2022/08/02 00:17:33;;;;;;;4.80;2.37;;;21.10;99.90;;;;;;5099509;28;20435;-54
2022/08/02 00:20:02;;;;;;;3.50;2.50;;;21.20;99.90;;;;;;5100005;28;20445;-53
2022/08/02 00:22:29;;;;;;;4.27;2.63;;;21.20;99.90;;;;;;5099173;28;20485;-52
2022/08/02 00:24:55;;;;;;;3.50;2.53;;;21.20;99.90;;;;;;5100601;28;20474;-58
2022/08/02 00:27:22;;;;;;;2.90;2.17;;;21.20;99.90;;;;;;5100577;28;20481;-54
2022/08/02 00:29:50;;;;;;;4.80;2.30;;;21.20;99.90;;;;;;5099919;28;20491;-54
2022/08/02 00:32:17;;;;;;;2.80;2.23;;;21.10;99.90;;;;;;5099728;28;20993;-53
2022/08/02 00:34:44;;;;;;;3.30;2.27;;;21.20;99.90;;;;;;5100027;28;20533;-49
2022/08/02 00:37:13;;;;;;;5.77;2.20;;;21.10;99.90;;;;;;5099006;28;20489;-53
2022/08/02 00:39:41;;;;;;;4.50;2.00;;;21.10;99.90;;;;;;5100084;28;20450;-53
2022/08/02 00:42:08;;;;;;;2.57;2.20;;;21.10;99.90;;;;;;5100728;28;20565;-54
2022/08/02 00:44:35;;;;;;;4.90;2.67;;;21.10;99.90;;;;;;5101596;28;20446;-55
2022/08/02 00:47:17;;;;;;;2.27;1.90;;;21.00;99.90;;;;;;5101727;28;20552;-53
2022/08/02 00:49:44;;;;;;;3.10;1.87;;;21.00;99.90;;;;;;5099242;28;20476;-53
2022/08/02 00:52:13;;;;;;;3.17;2.03;;;21.00;99.90;;;;;;5099236;28;20445;-54
2022/08/02 00:54:40;;;;;;;3.80;2.30;;;20.90;99.90;;;;;;5099360;28;20453;-49
2022/08/02 00:57:07;;;;;;;3.20;2.13;;;20.90;99.90;;;;;;5099052;28;20987;-51
2022/08/02 00:59:34;;;;;;;4.43;2.17;;;20.90;99.90;;;;;;5098915;28;20457;-52
2022/08/02 01:02:00;;;;;;;4.20;2.20;;;20.90;99.90;;;;;;5098903;28;20496;-55
2022/08/02 01:04:27;;;;;;;2.93;2.20;;;20.90;99.90;;;;;;5098541;28;20433;-55
2022/08/02 01:06:54;;;;;;;4.90;2.30;;;20.90;99.90;;;;;;5098273;28;20451;-55
2022/08/02 01:09:25;;;;;;;4.80;2.00;;;20.90;99.90;;;;;;5098384;28;20436;-54
2022/08/02 01:11:52;;;;;;;4.10;2.47;;;20.90;99.90;;;;;;5098663;28;20567;-54
2022/08/02 01:14:19;;;;;;;5.40;2.63;;;20.90;99.90;;;;;;5098561;28;20476;-56
2022/08/02 01:16:52;;;;;;;3.40;2.30;;;20.90;99.90;;;;;;5098778;28;20516;-56
2022/08/02 01:19:36;;;;;;;3.53;2.47;;;20.90;99.90;;;;;;5098171;28;20473;-55
2022/08/02 01:22:32;;;;;;;5.20;2.30;;;20.80;99.90;;;;;;5098463;28;20483;-53
2022/08/02 01:25:13;;;;;;;3.47;2.47;;;20.80;99.90;;;;;;5097557;28;20452;-53
2022/08/02 01:27:57;;;;;;;3.13;2.37;;;20.80;99.90;;;;;;5098334;28;20733;-51
2022/08/02 01:30:29;;;;;;;2.80;2.00;;;20.80;99.90;;;;;;5098271;28;20442;-55
2022/08/02 01:33:00;;;;;;;4.27;2.80;;;20.70;99.90;;;;;;5097781;28;20552;-52
2022/08/02 01:35:31;;;;;;;6.37;2.70;;;20.80;99.90;;;;;;5097839;28;20434;-54
2022/08/02 01:38:06;;;;;;;4.90;2.87;;;20.70;99.90;;;;;;5097969;28;20798;-50
2022/08/02 01:40:37;;;;;;;6.00;2.90;;;20.70;99.90;;;;;;5098627;28;20521;-55
2022/08/02 01:43:04;;;;;;;4.73;2.40;;;20.70;99.90;;;;;;5097822;28;20535;-51
2022/08/02 01:45:35;;;;;;;7.60;2.93;;;20.70;99.90;;;;;;5097770;28;20494;-53
2022/08/02 01:48:06;;;;;;;4.40;2.43;;;20.70;99.90;;;;;;5097935;28;20457;-50
2022/08/02 01:50:36;;;;;;;4.13;2.07;;;20.70;99.90;;;;;;5098312;28;20457;-55
2022/08/02 01:53:07;;;;;;;4.23;1.87;;;20.70;99.90;;;;;;5098037;28;20524;-56
2022/08/02 01:55:38;;;;;;;4.57;2.60;;;20.70;99.90;;;;;;5098067;28;20438;-47
2022/08/02 01:58:07;;;;;;;4.10;2.40;;;20.70;99.90;;;;;;5098012;28;20509;-51
2022/08/02 02:00:40;;;;;;;5.97;3.30;;;20.70;99.90;;;;;;5098285;28;20457;-51
2022/08/02 02:03:12;;;;;;;2.67;2.30;;;20.70;99.90;;;;;;5098581;28;20548;-48
2022/08/02 02:05:43;;;;;;;7.83;3.07;;;20.70;99.90;;;;;;5099217;28;20513;-56
2022/08/02 02:08:15;;;;;;;6.43;2.40;;;20.70;99.90;;;;;;5097772;28;20477;-54
2022/08/02 02:10:45;;;;;;;5.13;2.60;;;20.70;99.90;;;;;;5097200;28;20444;-53
2022/08/02 02:13:14;;;;;;;4.87;2.77;;;20.70;99.90;;;;;;5097683;28;20540;-53
2022/08/02 02:15:46;;;;;;;4.60;2.03;;;20.70;99.90;;;;;;5097527;28;20500;-55
2022/08/02 02:18:20;;;;;;;4.83;1.87;;;20.70;99.90;;;;;;5097439;28;20437;-53
2022/08/02 02:20:47;;;;;;;2.27;1.70;;;20.70;99.90;;;;;;5096973;28;20556;-55
2022/08/02 02:23:16;;;;;;;4.70;2.63;;;20.70;99.90;;;;;;5097048;28;20446;-54
2022/08/02 02:25:47;;;;;;;3.80;2.40;;;20.70;99.90;;;;;;5097059;28;20530;-55
2022/08/02 02:28:20;;;;;;;4.07;2.87;;;20.70;99.90;;;;;;5097012;28;20437;-55
2022/08/02 02:30:52;;;;;;;6.63;3.70;;;20.60;99.90;;;;;;5097450;28;20445;-55
2022/08/02 02:33:21;;;;;;;6.43;3.17;;;20.60;99.90;;;;;;5097390;28;20790;-49
2022/08/02 02:35:51;;;;;;;5.40;3.50;;;20.60;99.90;;;;;;5097595;28;20483;-55
2022/08/02 02:38:20;;;;;;;4.23;2.50;;;20.60;99.90;;;;;;5097171;28;20451;-55
2022/08/02 02:40:58;;;;;;;11.37;3.43;;;20.60;99.90;;;;;;5097567;28;20476;-56
2022/08/02 02:43:28;;;;;;;3.50;2.30;;;20.60;99.90;;;;;;5097308;28;20417;-52
2022/08/02 02:46:00;;;;;;;3.10;2.70;;;20.60;99.90;;;;;;5098384;28;20948;-53
2022/08/02 02:48:29;;;;;;;3.70;2.10;;;20.60;99.90;;;;;;5098554;28;20435;-54
2022/08/02 02:50:58;;;;;;;3.63;1.90;;;20.50;99.90;;;;;;5097774;28;20924;-56
2022/08/02 02:53:26;;;;;;;4.70;2.30;;;20.60;99.90;;;;;;5098260;28;20422;-55
2022/08/02 02:55:57;;;;;;;5.03;2.50;;;20.50;99.90;;;;;;5098129;28;20502;-51
2022/08/02 02:58:24;;;;;;;5.60;2.20;;;20.50;99.90;;;;;;5097659;28;21052;-56
2022/08/02 03:03:38;;;;;;;3.80;2.20;;;20.50;99.90;;;;;;5097661;28;20491;-57
2022/08/02 03:06:05;;;;;;;4.63;2.17;;;20.50;99.90;;;;;;5097618;28;20524;-55
2022/08/02 03:08:32;;;;;;;4.00;2.37;;;20.50;99.90;;;;;;5097371;28;20446;-53
2022/08/02 03:10:59;;;;;;;4.00;2.50;;;20.50;99.90;;;;;;5097988;28;20441;-54
2022/08/02 03:13:27;;;;;;;10.57;1.90;;;20.50;99.90;;;;;;5098644;28;20476;-58
2022/08/02 03:15:54;;;;;;;6.43;1.80;;;20.40;99.90;;;;;;5097442;28;20556;-56
2022/08/02 03:18:30;;;;;;;4.20;2.30;;;20.40;99.90;;;;;;5097709;28;20807;-52
2022/08/02 03:21:04;;;;;;;5.83;2.07;;;20.40;99.90;;;;;;5097641;28;20425;-51
2022/08/02 03:23:32;;;;;;;6.53;2.30;;;20.40;99.90;;;;;;5097563;28;20441;-56
2022/08/02 03:26:01;;;;;;;5.93;1.50;;;20.40;99.90;;;;;;5097626;28;20477;-55
2022/08/02 03:28:28;;;;;;;7.40;2.00;;;20.40;99.90;;;;;;5097456;28;20825;-51
2022/08/02 03:30:55;;;;;;;4.77;1.90;;;20.30;99.90;;;;;;5097668;28;20496;-51
2022/08/02 03:33:23;;;;;;;2.90;1.67;;;20.30;99.90;;;;;;5097363;28;20453;-47
2022/08/02 03:35:52;;;;;;;2.37;1.60;;;20.30;99.90;;;;;;5098631;28;20544;-53
2022/08/02 03:38:23;;;;;;;4.87;2.90;;;20.30;99.90;;;;;;5098589;28;20481;-51
2022/08/02 03:40:56;;;;;;;4.97;1.70;;;20.20;99.90;;;;;;5097647;28;20475;-56
2022/08/02 03:43:25;;;;;;;4.87;2.00;;;20.10;99.90;;;;;;5097311;28;20543;-53
2022/08/02 03:45:52;;;;;;;4.00;1.80;;;20.10;99.90;;;;;;5096942;28;20466;-55
2022/08/02 03:48:19;;;;;;;2.37;1.77;;;20.00;99.90;;;;;;5097357;28;20465;-55
2022/08/02 03:50:51;;;;;;;3.00;1.33;;;20.00;99.90;;;;;;5097616;28;20449;-48
2022/08/02 03:53:23;;;;;;;3.40;2.17;;;19.90;99.90;;;;;;5098084;28;20866;-52
2022/08/02 03:55:54;;;;;;;12.50;2.37;;;19.80;99.90;;;;;;5097187;28;20469;-50
2022/08/02 03:58:32;;;;;;;3.80;2.30;;;19.80;99.90;;;;;;5095435;28;21013;-55
2022/08/02 04:01:03;;;;;;;2.77;1.90;;;19.80;99.90;;;;;;5096703;28;20517;-55
2022/08/02 04:03:30;;;;;;;2.67;1.60;;;19.70;99.90;;;;;;5096666;28;20507;-56
2022/08/02 04:06:00;;;;;;;3.73;2.03;;;19.70;99.90;;;;;;5096923;28;20477;-56
2022/08/02 04:08:38;;;;;;;8.47;2.93;;;19.60;99.90;;;;;;5096987;28;20456;-55
2022/08/02 04:13:49;;;;;;;6.80;3.43;;;19.60;99.90;;;;;;5078648;28;20488;-53
2022/08/02 04:16:21;;;;;;;4.80;1.90;;;19.60;99.90;;;;;;5076593;28;20442;-52
2022/08/02 04:18:55;;;;;;;12.50;1.90;;;19.70;99.90;;;;;;5076524;28;20910;-55
2022/08/02 04:21:26;;;;;;;5.43;2.50;;;19.70;99.90;;;;;;5076240;28;20525;-51
2022/08/02 04:23:59;;;;;;;5.60;2.00;;;19.80;99.90;;;;;;5076128;28;20964;-53
2022/08/02 04:26:36;;;;;;;5.80;2.30;;;19.80;99.90;;;;;;5075393;28;20537;-54
2022/08/02 04:29:10;;;;;;;2.20;1.90;;;19.80;99.90;;;;;;5076137;28;20549;-54
2022/08/02 04:31:38;;;;;;;4.97;1.93;;;19.90;99.90;;;;;;5076085;28;20428;-56
2022/08/02 04:34:05;;;;;;;9.33;2.20;;;19.90;99.90;;;;;;5075828;28;20477;-51
2022/08/02 04:36:32;;;;;;;9.53;2.77;;;19.90;99.90;;;;;;5075747;28;20454;-52
2022/08/02 04:39:00;;;;;;;8.03;2.20;;;20.00;99.90;;;;;;5075775;28;20493;-54
2022/08/02 04:41:41;;;;;;;8.03;2.70;;;20.00;99.90;;;;;;5075766;28;20951;-55
2022/08/02 04:44:11;;;;;;;3.33;1.40;;;20.00;99.90;;;;;;5076079;28;20500;-50
2022/08/02 04:46:39;;;;;;;4.10;1.70;;;20.10;99.90;;;;;;5075929;28;20442;-48
2022/08/02 04:49:06;;;;;;;2.40;1.77;;;20.10;99.90;;;;;;5077601;28;20907;-53
2022/08/02 04:51:35;;;;;;;4.00;1.83;;;20.20;99.90;;;;;;5078065;28;20525;-51
2022/08/02 04:54:03;;;;;;;3.30;2.00;;;20.20;99.90;;;;;;5074646;28;20474;-53
2022/08/02 04:56:36;;;;;;;4.07;2.37;;;20.20;99.90;;;;;;5075504;28;20534;-51
2022/08/02 04:59:03;;;;;;;6.33;2.60;;;20.20;99.90;;;;;;5075574;28;20446;-56
2022/08/02 05:01:31;;;;;;;4.20;2.10;;;20.30;99.90;;;;;;5075236;28;20450;-55
2022/08/02 05:03:57;;;;;;;8.60;2.30;;;20.30;99.90;;;;;;5075379;28;20486;-54
2022/08/02 05:06:24;;;;;;;3.03;1.60;;;20.30;99.90;;;;;;5075214;28;20553;-53
2022/08/02 05:08:51;;;;;;;5.23;2.20;;;20.40;99.90;;;;;;5074902;28;20442;-53
2022/08/02 05:11:19;;;;;;;5.57;2.40;;;20.40;99.90;;;;;;5075086;28;20457;-56
2022/08/02 05:13:46;;;;;;;8.00;2.13;;;20.40;99.90;;;;;;5075337;28;20518;-55
2022/08/02 05:16:13;;;;;;;3.10;2.07;;;20.50;99.90;;;;;;5074890;28;20458;-53
2022/08/02 05:18:40;;;;;;;10.23;2.73;;;20.50;99.90;;;;;;5074979;28;20471;-51
2022/08/02 05:21:06;;;;;;;3.50;2.43;;;20.50;99.90;;;;;;5075026;28;20545;-54
2022/08/02 05:23:33;;;;;;;3.83;3.00;;;20.50;99.90;;;;;;5075253;28;20513;-56
2022/08/02 05:26:00;;;;;;;7.13;2.50;;;20.60;99.90;;;;;;5075303;28;20533;-56
2022/08/02 05:28:28;;;;;;;4.03;2.30;;;20.60;99.90;;;;;;5075074;28;20446;-56
2022/08/02 05:30:55;;;;;;;6.03;2.57;;;20.60;99.90;;;;;;5074873;28;20471;-53
2022/08/02 05:33:22;;;;;;;3.90;2.27;;;20.60;99.90;;;;;;5074492;28;20470;-56
2022/08/02 05:35:49;;;;;;;5.10;2.77;;;20.50;99.90;;;;;;5074382;28;20450;-56
2022/08/02 05:38:15;;;;;;;3.60;2.23;;;20.50;99.90;;;;;;5074815;28;20446;-56
2022/08/02 05:40:42;;;;;;;7.67;3.53;;;20.50;99.90;;;;;;5074722;28;20465;-55
2022/08/02 05:43:15;;;;;;;5.47;2.30;;;20.50;99.90;;;;;;5074159;28;20500;-57
2022/08/02 05:45:43;;;;;;;5.23;2.63;;;20.40;99.90;;;;;;5074877;28;20528;-57
2022/08/02 05:48:10;;;;;;;10.30;2.60;;;20.40;99.90;;;;;;5074341;28;20464;-57
2022/08/02 05:50:39;;;;;;;4.53;2.27;;;20.40;99.90;;;;;;5074615;28;20446;-57
2022/08/02 05:53:23;;;;;;;4.00;2.40;;;20.40;99.90;;;;;;5074255;28;20899;-56
2022/08/02 05:56:00;;;;;;;4.10;2.00;;;20.40;99.90;;;;;;5074554;28;20476;-56
2022/08/02 05:58:36;;;;;;;4.50;2.30;;;20.40;99.90;;;;;;5074247;28;20785;-52
2022/08/02 06:01:04;;;;;;;6.43;2.50;;;20.40;99.90;;;;;;5074520;28;20514;-53
2022/08/02 06:03:36;;;;;;;7.37;2.77;;;20.50;99.90;;;;;;5074185;28;20971;-50
2022/08/02 06:06:10;;;;;;;9.63;2.90;;;20.60;99.90;;;;;;5074488;28;20457;-56
2022/08/02 06:08:39;;;;;;;6.00;2.67;;;20.60;99.90;;;;;;5074360;28;20462;-55
2022/08/02 06:11:08;;;;;;;7.37;2.60;;;20.70;99.90;;;;;;5074256;28;20452;-56
2022/08/02 06:13:35;;;;;;;6.60;2.40;;;20.70;99.90;;;;;;5073959;28;20466;-56
2022/08/02 06:16:05;;;;;;;13.23;2.73;;;20.70;99.90;;;;;;5074399;28;20433;-55
2022/08/02 06:18:33;;;;;;;6.40;2.70;;;20.70;99.90;;;;;;5074442;28;20446;-53
2022/08/02 06:21:04;;;;;;;3.07;1.77;;;20.70;99.90;;;;;;5075124;28;21071;-54
2022/08/02 06:23:32;;;;;;;2.63;1.93;;;20.80;99.90;;;;;;5078220;28;20466;-53
2022/08/02 06:26:00;;;;;;;6.00;2.37;;;21.00;99.90;;;;;;5082704;28;20450;-55
2022/08/02 06:28:27;;;;;;;5.83;2.53;;;21.10;99.90;;;;;;5093185;28;20455;-55
2022/08/02 06:30:55;;;;;;;5.03;2.10;;;21.20;99.90;;;;;;5098221;28;20540;-55
2022/08/02 06:33:23;;;;;;;4.20;1.87;;;21.20;99.90;;;;;;5079983;28;20450;-55
2022/08/02 06:35:58;;;;;;;7.90;2.33;;;21.30;99.90;;;;;;5079821;28;20538;-54
2022/08/02 06:38:27;;;;;;;5.90;1.90;;;21.30;99.90;;;;;;5078488;28;20473;-50
2022/08/02 06:40:59;;;;;;;3.50;2.10;;;21.40;99.90;;;;;;5093304;28;20445;-53
2022/08/02 06:43:34;;;;;;;3.53;2.20;;;21.40;99.90;;;;;;5090565;28;20500;-53
2022/08/02 06:46:02;;;;;;;7.77;2.60;;;21.50;99.90;;;;;;5095310;28;20437;-55
2022/08/02 06:48:34;;;;;;;4.83;2.40;;;21.50;99.90;;;;;;5090711;28;20485;-55
2022/08/02 06:51:01;;;;;;;4.07;2.40;;;21.60;99.90;;;;;;5078323;28;20506;-54
2022/08/02 06:53:28;;;;;;;5.80;2.43;;;21.70;99.90;;;;;;5084173;28;20438;-56
2022/08/02 06:55:55;;;;;;;7.87;2.40;;;21.80;99.90;;;;;;5090743;28;20454;-56
2022/08/02 06:58:22;;;;;;;6.23;2.40;;;21.90;99.90;;;;;;5093595;28;20446;-52
2022/08/02 07:00:49;;;;;;;5.25;2.63;;;21.90;99.90;;;;;;5082000;28;20444;-50
2022/08/02 07:03:17;;;;;;;4.90;2.30;;;21.90;99.90;;;;;;5088881;28;20223;-54
2022/08/02 07:05:47;;;;;;;5.17;2.43;;;21.90;99.90;;;;;;5101405;28;20588;-57
2022/08/02 07:08:14;;;;;;;6.20;2.40;;;22.00;99.90;;;;;;5101767;28;20844;-56
2022/08/02 07:10:41;;;;;;;6.90;2.73;;;22.20;99.90;;;;;;5101516;28;20441;-54
2022/08/02 07:13:08;;;;;;;6.63;2.33;;;22.30;99.90;;;;;;5103444;28;20444;-52
2022/08/02 07:15:34;;;;;;;4.07;1.97;;;22.40;99.90;;;;;;5101903;28;20463;-48
2022/08/02 07:18:01;;;;;;;12.87;3.20;;;22.50;99.90;;;;;;5100174;28;20441;-50
2022/08/02 07:20:28;;;;;;;4.70;2.17;;;22.60;99.90;;;;;;5101221;28;20549;-55
2022/08/02 07:22:56;;;;;;;7.07;2.70;;;22.70;99.90;;;;;;5097027;28;20616;-55
2022/08/02 07:25:23;;;;;;;4.23;2.20;;;22.80;99.90;;;;;;5094663;28;20553;-47
2022/08/02 07:27:50;;;;;;;9.20;3.13;;;23.00;99.90;;;;;;5079574;28;20446;-51
2022/08/02 07:30:17;;;;;;;2.93;2.30;;;23.50;99.90;;;;;;5093037;28;20541;-58
2022/08/02 07:32:44;;;;;;;5.53;2.33;;;24.40;99.90;;;;;;5096642;28;20910;-48
2022/08/02 07:35:11;;;;;;;3.23;2.20;;;25.40;99.90;;;;;;5096921;28;20430;-54
2022/08/02 07:37:38;;;;;;;6.87;2.70;;;25.90;99.90;;;;;;5097056;28;20480;-57
2022/08/02 07:40:08;;;;;;;11.77;2.90;;;25.80;99.90;;;;;;5097525;28;20483;-49
2022/08/02 07:42:36;;;;;;;5.00;2.13;;;25.60;99.90;;;;;;5096880;28;20832;-55
2022/08/02 07:45:03;;;;;;;2.60;1.90;;;25.40;99.90;;;;;;5096717;28;20472;-55
2022/08/02 07:47:30;;;;;;;2.93;2.03;;;25.20;99.90;;;;;;5096943;28;20473;-61
2022/08/02 07:49:57;;;;;;;5.20;2.10;;;25.70;99.90;;;;;;5096804;28;20488;-53
2022/08/02 07:52:23;;;;;;;4.40;2.03;;;26.80;97.60;;;;;;5097120;28;20422;-56
2022/08/02 07:54:50;;;;;;;2.87;1.90;;;27.80;94.80;;;;;;5097040;28;20445;-52
2022/08/02 07:57:19;;;;;;;3.17;2.10;;;29.20;91.70;;;;;;5096944;28;20531;-53
2022/08/02 07:59:47;;;;;;;4.03;1.80;;;30.80;83.50;;;;;;5096063;28;20523;-54
2022/08/02 08:02:14;;;;;;;3.53;1.83;;;31.20;74.60;;;;;;5096462;28;20466;-49
2022/08/02 08:04:41;;;;;;;3.47;2.00;;;31.50;69.70;;;;;;5097444;28;20476;-54
2022/08/02 08:07:10;;;;;;;3.87;2.10;;;32.30;66.50;;;;;;5097578;28;20457;-55
2022/08/02 08:09:39;;;;;;;3.80;2.10;;;33.30;62.20;;;;;;5097190;28;20561;-55
2022/08/02 08:12:06;;;;;;;4.20;2.20;;;34.00;58.50;;;;;;5096601;28;20462;-53
2022/08/02 08:14:34;;;;;;;5.87;2.20;;;34.40;56.20;;;;;;5096289;28;20472;-56
2022/08/02 08:17:01;;;;;;;2.77;1.80;;;34.90;54.70;;;;;;5096686;28;20513;-52
2022/08/02 08:19:29;;;;;;;2.90;1.80;;;35.20;53.30;;;;;;5096611;28;20449;-53
2022/08/02 08:21:58;;;;;;;4.20;1.87;;;35.40;51.30;;;;;;5096416;28;20509;-54
2022/08/02 08:24:25;;;;;;;2.83;1.40;;;35.10;51.10;;;;;;5096169;28;20473;-53
2022/08/02 08:26:52;;;;;;;3.53;1.70;;;35.10;49.90;;;;;;5096548;28;20481;-52
2022/08/02 08:29:19;;;;;;;4.37;1.93;;;35.00;49.70;;;;;;5096068;28;20449;-55
2022/08/02 08:31:48;;;;;;;2.47;1.60;;;34.90;49.30;;;;;;5096213;28;20462;-51
2022/08/02 08:34:17;;;;;;;3.73;1.50;;;34.90;50.30;;;;;;5108479;28;20504;-34
2022/08/02 08:36:44;;;;;;;5.20;2.43;;;35.20;48.70;;;;;;5107878;28;20485;-55
2022/08/02 08:39:11;;;;;;;1.93;1.73;;;35.50;48.70;;;;;;5108341;28;20472;-54
2022/08/02 08:41:37;;;;;;;3.17;1.80;;;35.70;48.00;;;;;;5107560;28;20442;-55
2022/08/02 08:44:05;;;;;;;7.53;2.60;;;35.70;47.10;;;;;;5106143;28;20503;-54
2022/08/02 08:46:33;;;;;;;2.70;1.70;;;35.80;47.00;;;;;;5106360;28;20548;-53
2022/08/02 08:49:08;;;;;;;4.87;1.63;;;36.10;46.60;;;;;;5105670;28;20521;-55
2022/08/02 08:51:38;;;;;;;5.00;1.70;;;36.20;46.20;;;;;;5104694;28;20484;-55
2022/08/02 08:54:09;;;;;;;4.07;1.87;;;35.90;46.40;;;;;;5105424;28;20449;-52
2022/08/02 08:56:36;;;;;;;4.10;1.90;;;35.70;46.50;;;;;;5105889;28;20438;-53
2022/08/02 08:59:05;;;;;;;1.83;1.60;;;35.80;46.00;;;;;;5106308;28;20438;-54
2022/08/02 09:01:32;;;;;;;2.33;1.80;;;35.90;46.60;;;;;;5106857;28;20450;-47
2022/08/02 09:03:59;;;;;;;2.87;2.40;;;36.10;45.40;;;;;;5106343;28;20489;-47
2022/08/02 09:06:28;;;;;;;3.83;1.70;;;36.30;45.50;;;;;;5106108;28;20532;-55
2022/08/02 09:08:54;;;;;;;3.27;1.57;;;36.40;45.20;;;;;;5107556;28;20520;-53
2022/08/02 09:11:24;;;;;;;5.80;2.10;;;36.60;44.90;;;;;;5107647;28;20469;-54
2022/08/02 09:13:54;;;;;;;3.17;2.00;;;36.50;44.80;;;;;;5108254;28;20454;-49
2022/08/02 09:16:34;;;;;;;2.60;1.90;;;36.70;44.70;;;;;;5107400;28;20480;-49
2022/08/02 09:19:02;;;;;;;3.20;2.10;;;36.40;44.00;;;;;;5104310;28;20908;-55
2022/08/02 09:21:37;;;;;;;3.57;1.93;;;36.00;44.90;;;;;;5105878;28;20531;-55
2022/08/02 09:24:16;;;;;;;1.93;1.47;;;36.10;44.00;;;;;;5106952;28;20995;-51
2022/08/02 09:26:43;;;;;;;4.20;1.97;;;36.10;44.50;;;;;;5106453;28;20470;-53
2022/08/02 09:29:10;;;;;;;3.40;2.17;;;35.90;44.00;;;;;;5105686;28;20474;-54
2022/08/02 09:31:37;;;;;;;8.00;1.90;;;35.80;44.70;;;;;;5104492;28;20457;-52
2022/08/02 09:34:04;;;;;;;2.80;1.70;;;35.70;44.40;;;;;;5105371;28;20484;-51
2022/08/02 09:36:40;;;;;;;2.77;1.67;;;35.70;45.00;;;;;;5105699;28;20455;-51
2022/08/02 09:39:10;;;;;;;2.40;1.90;;;35.80;44.50;;;;;;5107902;28;20991;-51
2022/08/02 09:41:39;;;;;;;2.23;2.03;;;36.30;44.20;;;;;;5106678;28;20452;-52
2022/08/02 09:44:08;;;;;;;3.13;2.10;;;36.50;44.40;;;;;;5106445;28;20507;-52
2022/08/02 09:46:37;;;;;;;2.53;1.90;;;36.60;43.80;;;;;;5107221;28;20454;-52
2022/08/02 09:49:06;;;;;;;2.07;1.80;;;36.60;43.30;;;;;;5107455;28;20481;-53
2022/08/02 09:51:35;;;;;;;2.13;1.50;;;36.50;43.40;;;;;;5106539;28;20437;-54
2022/08/02 09:54:05;;;;;;;3.13;1.40;;;36.40;43.20;;;;;;5104575;28;20456;-50
2022/08/02 09:56:42;;;;;;;1.90;1.30;;;36.00;43.90;;;;;;5104435;28;20441;-48
2022/08/02 09:59:09;;;;;;;2.63;2.40;;;35.30;44.30;;;;;;5103670;28;20510;-55
2022/08/02 10:01:37;;;;;;;6.33;2.10;;;34.30;45.30;;;;;;5102944;28;20453;-52
2022/08/02 10:04:06;;;;;;;3.30;1.90;;;33.30;46.90;;;;;;5103819;28;20477;-52
2022/08/02 10:06:34;;;;;;;3.47;1.50;;;32.40;48.00;;;;;;5104512;28;20533;-51
2022/08/02 10:09:03;;;;;;;2.93;1.63;;;31.90;49.00;;;;;;5104231;28;20442;-54
2022/08/02 10:11:33;;;;;;;4.50;1.97;;;31.40;50.00;;;;;;5105357;28;20496;-50
2022/08/02 10:14:02;;;;;;;2.77;1.57;;;31.50;51.00;;;;;;5106219;28;20446;-50
2022/08/02 10:16:29;;;;;;;3.20;1.90;;;32.10;49.90;;;;;;5107115;28;20441;-55
2022/08/02 10:18:58;;;;;;;4.00;2.13;;;32.50;49.50;;;;;;5105948;28;20452;-55
2022/08/02 10:21:29;;;;;;;3.23;2.43;;;32.40;49.20;;;;;;5105225;28;20521;-49
2022/08/02 10:24:05;;;;;;;3.23;2.20;;;32.10;49.50;;;;;;5105098;28;20461;-55
2022/08/02 10:26:34;;;;;;;2.17;1.97;;;32.20;49.90;;;;;;5106276;28;20414;-54
2022/08/02 10:29:01;;;;;;;5.83;1.80;;;32.50;49.10;;;;;;5106054;28;20477;-50
2022/08/02 10:31:47;;;;;;;2.70;2.47;;;32.70;48.70;;;;;;5105702;28;20433;-50
2022/08/02 10:34:19;;;;;;;3.00;1.90;;;32.70;49.60;;;;;;5105080;28;20482;-51
2022/08/02 10:36:47;;;;;;;3.50;1.97;;;32.90;48.80;;;;;;5105445;28;20438;-51
2022/08/02 10:39:16;;;;;;;5.10;2.87;;;32.90;48.80;;;;;;5105371;28;20469;-55
2022/08/02 10:41:47;;;;;;;9.03;2.57;;;33.00;48.50;;;;;;5105128;28;20457;-54
2022/08/02 10:44:27;;;;;;;5.93;1.80;;;32.90;48.30;;;;;;5104046;28;20485;-53
2022/08/02 10:47:22;;;;;;;2.97;1.57;;;32.30;48.70;;;;;;5103290;28;20950;-50
2022/08/02 10:49:50;;;;;;;3.10;2.30;;;31.50;50.20;;;;;;5103346;28;20532;-49
2022/08/02 10:52:17;;;;;;;8.87;2.30;;;31.10;52.00;;;;;;5103570;28;20500;-50
2022/08/02 10:54:49;;;;;;;2.87;1.80;;;30.80;51.40;;;;;;5103911;28;20452;-54
2022/08/02 10:57:19;;;;;;;3.27;1.97;;;30.60;52.50;;;;;;5103759;28;20422;-56
2022/08/02 10:59:48;;;;;;;2.50;2.13;;;30.80;51.80;;;;;;5103619;28;20449;-54
2022/08/02 11:02:34;;;;;;;3.37;2.00;;;30.70;51.70;;;;;;5103681;28;20461;-52
2022/08/02 11:05:03;;;;;;;6.77;1.87;;;30.60;51.90;;;;;;5103468;28;20503;-55
2022/08/02 11:07:35;;;;;;;4.60;2.90;;;30.30;51.90;;;;;;5105152;28;20560;-50
2022/08/02 11:10:36;;;;;;;4.73;1.73;;;29.70;53.40;;;;;;5108260;28;20505;-49
2022/08/02 11:13:14;;;;;;;3.43;1.60;;;29.80;53.70;;;;;;5108628;28;20472;-46
2022/08/02 11:15:54;;;;;;;3.00;1.87;;;30.00;53.50;;;;;;5107992;28;20525;-52
2022/08/02 11:18:22;;;;;;;4.77;2.40;;;30.20;53.90;;;;;;5108575;28;21054;-52
2022/08/02 11:21:23;;;;;;;3.90;1.90;;;30.20;53.00;;;;;;5109271;28;20444;-49
2022/08/02 11:23:50;;;;;;;6.60;2.27;;;30.10;53.20;;;;;;5119906;28;20476;-43
2022/08/02 11:26:43;;;;;;;3.20;2.33;;;30.20;53.20;;;;;;5119355;28;20541;-50
2022/08/02 11:29:11;;;;;;;4.80;2.03;;;30.30;52.80;;;;;;5119482;28;20433;-51
2022/08/02 11:31:40;;;;;;;2.73;2.20;;;30.30;53.00;;;;;;5119301;28;20434;-49
2022/08/02 11:34:07;;;;;;;3.63;2.10;;;30.20;53.30;;;;;;5119090;28;20509;-47
2022/08/02 11:36:42;;;;;;;12.33;2.70;;;30.00;53.50;;;;;;5119010;28;20442;-49
2022/08/02 11:39:10;;;;;;;5.23;2.87;;;29.50;53.50;;;;;;5119119;28;20477;-51
2022/08/02 11:41:37;;;;;;;3.43;2.20;;;29.30;54.40;;;;;;5118705;28;20461;-47
2022/08/02 11:44:04;;;;;;;2.90;2.03;;;29.10;53.90;;;;;;5118964;28;20529;-46
2022/08/02 11:46:33;;;;;;;4.40;1.90;;;29.00;54.40;;;;;;5118762;28;20553;-50
2022/08/02 11:49:12;;;;;;;3.13;2.13;;;29.20;53.30;;;;;;5118450;28;20453;-46
2022/08/02 11:51:39;;;;;;;2.20;1.73;;;29.30;53.60;;;;;;5118829;28;20475;-47
2022/08/02 11:54:06;;;;;;;2.03;1.73;;;29.30;53.10;;;;;;5115902;28;20482;-55
2022/08/02 11:56:33;;;;;;;2.77;2.20;;;29.20;53.30;;;;;;5099268;28;20786;-54
2022/08/02 11:59:05;;;;;;;2.03;1.73;;;29.20;54.00;;;;;;5096687;28;20456;-56
2022/08/02 12:01:35;;;;;;;5.13;1.77;;;29.20;54.20;;;;;;5096967;28;20468;-55
2022/08/02 12:04:03;;;;;;;2.13;1.93;;;29.30;53.80;;;;;;5096686;28;20469;-53
2022/08/02 12:06:31;;;;;;;3.00;2.07;;;29.20;53.60;;;;;;5096460;28;20626;-51
2022/08/02 12:09:04;;;;;;;4.00;3.70;;;29.20;54.20;;;;;;5097079;28;20481;-54
2022/08/02 12:11:31;;;;;;;4.53;3.00;;;29.30;54.40;;;;;;5096330;28;20511;-53
2022/08/02 12:13:59;;;;;;;2.03;1.80;;;29.30;54.20;;;;;;5096576;28;20497;-52
2022/08/02 12:19:25;;;;;;;3.80;2.77;;;29.30;54.50;;;;;;5095109;28;20405;-53
2022/08/02 12:22:07;;;;;;;5.00;2.20;;;29.30;54.30;;;;;;5096393;28;20897;-56
2022/08/02 12:24:35;;;;;;;3.80;2.00;;;29.20;53.10;;;;;;5096075;28;20466;-53
2022/08/02 12:27:02;;;;;;;2.20;1.93;;;29.20;53.00;;;;;;5096379;28;20445;-49
2022/08/02 12:29:33;;;;;;;2.90;2.43;;;29.10;52.30;;;;;;5096267;28;20452;-61
2022/08/02 12:32:01;;;;;;;2.90;2.00;;;29.10;52.90;;;;;;5095981;28;20472;-53
2022/08/02 12:34:30;;;;;;;5.43;1.90;;;28.90;52.30;;;;;;5095883;28;20522;-52
2022/08/02 12:37:02;;;;;;;3.03;2.40;;;28.90;52.40;;;;;;5096036;28;20480;-54
2022/08/02 12:39:38;;;;;;;1.77;1.67;;;29.00;52.60;;;;;;5095780;28;20930;-55
2022/08/02 12:42:07;;;;;;;3.30;2.53;;;28.90;52.70;;;;;;5096158;28;20464;-55
2022/08/02 12:44:36;;;;;;;3.67;1.90;;;28.80;53.10;;;;;;5096019;28;20645;-54
2022/08/02 12:47:07;;;;;;;3.10;2.03;;;28.70;53.10;;;;;;5095825;28;20433;-52
2022/08/02 12:49:34;;;;;;;12.80;2.90;;;28.80;53.30;;;;;;5095640;28;20520;-53
2022/08/02 12:52:01;;;;;;;5.80;3.93;;;28.90;53.30;;;;;;5095952;28;20442;-52
2022/08/02 12:54:31;;;;;;;5.00;2.00;;;29.00;53.80;;;;;;5095939;28;20442;-55
2022/08/02 12:56:58;;;;;;;4.20;1.97;;;29.00;53.80;;;;;;5095845;28;20994;-52
2022/08/02 12:59:36;;;;;;;6.97;3.00;;;29.10;53.50;;;;;;5095624;28;20473;-53
2022/08/02 13:02:06;;;;;;;6.60;2.83;;;29.10;53.80;;;;;;5096688;28;20437;-55
2022/08/02 13:04:33;;;;;;;3.57;1.87;;;29.00;54.00;;;;;;5095529;28;20495;-54
2022/08/02 13:07:01;;;;;;;2.67;1.63;;;29.00;54.00;;;;;;5095658;28;20450;-54